createdAt,value
2019-03-08T00:01:21.583Z,1.2
2019-03-08T00:04:21.509Z,1.2
2019-03-08T00:07:21.577Z,1.1
2019-03-08T00:10:21.587Z,1.3
2019-03-08T00:13:21.542Z,1.3
2019-03-08T00:16:21.585Z,1.2
2019-03-08T00:19:21.550Z,1.2
2019-03-08T00:22:21.848Z,1.3
2019-03-08T00:25:21.562Z,1.2
2019-03-08T00:28:21.554Z,1.2
2019-03-08T00:31:22.079Z,1.2
2019-03-08T00:34:21.544Z,1.1
2019-03-08T00:37:21.520Z,1.2
2019-03-08T00:40:21.566Z,1.1
2019-03-08T00:43:21.563Z,1.2
2019-03-08T00:46:21.575Z,1.2
2019-03-08T00:49:21.515Z,1.1
2019-03-08T00:52:21.564Z,1.6
2019-03-08T00:55:21.565Z,1.4
2019-03-08T00:58:21.567Z,1.3
2019-03-08T01:01:21.548Z,1.2
2019-03-08T01:04:21.529Z,1.2
2019-03-08T01:07:21.849Z,1.2
2019-03-08T01:10:21.588Z,1.3
2019-03-08T01:13:21.566Z,1.1
2019-03-08T01:16:21.403Z,1.1
2019-03-08T01:19:21.615Z,1.1
2019-03-08T01:22:21.664Z,1.1
2019-03-08T01:25:21.873Z,1.1
2019-03-08T01:28:21.615Z,1.2
2019-03-08T01:31:21.541Z,1.1
2019-03-08T01:34:21.547Z,1.1
2019-03-08T01:37:21.601Z,1.1
2019-03-08T01:40:21.679Z,1
2019-03-08T01:43:24.234Z,1.1
2019-03-08T01:46:21.728Z,1.1
2019-03-08T01:49:21.601Z,1.1
2019-03-08T01:52:21.570Z,1
2019-03-08T01:55:21.610Z,1
2019-03-08T01:58:21.578Z,0.9
2019-03-08T02:01:21.547Z,1
2019-03-08T02:04:21.553Z,1
2019-03-08T02:07:23.895Z,1
2019-03-08T02:10:21.564Z,0.9
2019-03-08T02:13:21.581Z,0.9
2019-03-08T02:16:21.621Z,1
2019-03-08T02:19:21.528Z,1
2019-03-08T02:22:23.929Z,0.9
2019-03-08T02:25:21.527Z,0.9
2019-03-08T02:28:21.532Z,0.9
2019-03-08T02:31:24.170Z,1
2019-03-08T02:34:21.610Z,0.9
2019-03-08T02:37:21.714Z,1
2019-03-08T02:40:21.576Z,1
2019-03-08T02:43:21.577Z,1
2019-03-08T02:46:21.634Z,1
2019-03-08T02:49:21.616Z,1.2
2019-03-08T02:52:21.474Z,1
2019-03-08T02:55:24.135Z,0.9
2019-03-08T02:58:21.506Z,0.9
2019-03-08T03:01:21.525Z,0.9
2019-03-08T03:04:21.755Z,0.8
2019-03-08T03:07:21.262Z,0.8
2019-03-08T03:10:21.481Z,0.9
2019-03-08T03:13:21.293Z,0.9
2019-03-08T03:16:21.239Z,0.9
2019-03-08T03:19:22.140Z,0.9
2019-03-08T03:22:21.358Z,0.8
2019-03-08T03:25:21.334Z,1
2019-03-08T03:28:21.362Z,0.9
2019-03-08T03:31:21.379Z,0.9
2019-03-08T03:34:21.241Z,0.9
2019-03-08T03:37:21.358Z,0.9
2019-03-08T03:40:21.270Z,0.9
2019-03-08T03:43:22.618Z,0.9
2019-03-08T03:46:21.258Z,0.9
2019-03-08T03:49:21.284Z,0.9
2019-03-08T03:52:21.409Z,0.9
2019-03-08T03:55:21.266Z,0.9
2019-03-08T03:58:21.274Z,0.8
2019-03-08T04:01:21.362Z,0.9
2019-03-08T04:04:21.546Z,0.8
2019-03-08T04:07:22.101Z,0.9
2019-03-08T04:10:21.314Z,0.9
2019-03-08T04:13:21.306Z,0.9
2019-03-08T04:16:21.464Z,0.8
2019-03-08T04:19:21.341Z,0.8
2019-03-08T04:22:21.349Z,0.9
2019-03-08T04:25:21.343Z,0.9
2019-03-08T04:28:21.475Z,0.9
2019-03-08T04:31:21.802Z,0.9
2019-03-08T04:34:21.311Z,1
2019-03-08T04:37:21.318Z,1
2019-03-08T04:40:21.454Z,0.9
2019-03-08T04:43:21.273Z,0.9
2019-03-08T04:46:21.315Z,1
2019-03-08T04:49:21.335Z,0.9
2019-03-08T04:52:21.412Z,0.9
2019-03-08T04:55:22.847Z,0.8
2019-03-08T04:58:21.357Z,0.8
2019-03-08T05:01:21.282Z,0.9
2019-03-08T05:04:21.377Z,0.9
2019-03-08T05:07:21.281Z,0.8
2019-03-08T05:10:21.411Z,0.9
2019-03-08T05:13:21.232Z,0.8
2019-03-08T05:16:21.248Z,1
2019-03-08T05:19:23.529Z,0.9
2019-03-08T05:22:23.523Z,0.8
2019-03-08T05:25:21.277Z,0.9
2019-03-08T05:28:21.286Z,0.9
2019-03-08T05:31:21.202Z,0.9
2019-03-08T05:34:21.202Z,0.9
2019-03-08T05:37:21.180Z,0.8
2019-03-08T05:40:21.246Z,1
2019-03-08T05:43:23.706Z,0.8
2019-03-08T05:46:21.221Z,1
2019-03-08T05:49:21.234Z,0.9
2019-03-08T05:52:21.189Z,0.8
2019-03-08T05:55:21.234Z,0.8
2019-03-08T05:58:21.154Z,0.7
2019-03-08T06:01:21.222Z,0.7
2019-03-08T06:04:21.277Z,0.8
2019-03-08T06:07:21.358Z,0.8
2019-03-08T06:10:21.233Z,0.8
2019-03-08T06:13:21.333Z,0.8
2019-03-08T06:16:21.443Z,1
2019-03-08T06:19:21.252Z,2
2019-03-08T06:22:23.368Z,2.5
2019-03-08T06:25:21.236Z,2.6
2019-03-08T06:28:21.188Z,2.9
2019-03-08T06:31:21.352Z,3
2019-03-08T06:34:21.246Z,3.3
2019-03-08T06:37:21.367Z,3.3
2019-03-08T06:40:21.439Z,3.1
2019-03-08T06:43:21.662Z,3.1
2019-03-08T06:46:21.493Z,2.8
2019-03-08T06:49:21.416Z,3.1
2019-03-08T06:52:21.377Z,3
2019-03-08T06:55:21.724Z,3.3
2019-03-08T06:58:21.487Z,2.5
2019-03-08T07:01:23.110Z,2.7
2019-03-08T07:04:21.288Z,2.2
2019-03-08T07:07:21.489Z,2.1
2019-03-08T07:10:21.345Z,2
2019-03-08T07:13:21.425Z,2
2019-03-08T07:16:21.375Z,2.2
2019-03-08T07:19:21.480Z,2.3
2019-03-08T07:22:21.404Z,2
2019-03-08T07:25:22.492Z,1.7
2019-03-08T07:28:21.521Z,1.9
2019-03-08T07:31:21.475Z,1.9
2019-03-08T07:34:21.477Z,1.8
2019-03-08T07:37:21.547Z,1.7
2019-03-08T07:40:21.532Z,1.8
2019-03-08T07:43:21.359Z,1.7
2019-03-08T07:46:21.304Z,1.6
2019-03-08T07:49:25.020Z,1.5
2019-03-08T07:52:21.398Z,1.5
2019-03-08T07:55:21.306Z,1.3
2019-03-08T07:58:21.331Z,1.5
2019-03-08T08:01:21.387Z,1.4
2019-03-08T08:04:21.479Z,1.4
2019-03-08T08:07:21.353Z,1.6
2019-03-08T08:10:21.450Z,1.5
2019-03-08T08:13:24.066Z,1.8
2019-03-08T08:16:21.489Z,1.7
2019-03-08T08:19:21.599Z,1.5
2019-03-08T08:22:21.297Z,2.5
2019-03-08T08:25:21.276Z,2.2
2019-03-08T08:28:21.284Z,1.8
2019-03-08T08:31:21.313Z,2
2019-03-08T08:34:22.464Z,2.8
2019-03-08T08:37:23.724Z,2.1
2019-03-08T08:40:21.343Z,3
2019-03-08T08:43:21.202Z,2.7
2019-03-08T08:46:21.287Z,3.7
2019-03-08T08:49:21.244Z,3.1
2019-03-08T08:52:21.248Z,2.8
2019-03-08T08:55:21.181Z,2.1
2019-03-08T08:58:21.301Z,2
2019-03-08T09:01:23.078Z,1.8
2019-03-08T09:04:21.318Z,1.7
2019-03-08T09:07:21.383Z,1.6
2019-03-08T09:10:21.201Z,1.5
2019-03-08T09:13:21.377Z,1.4
2019-03-08T09:16:21.187Z,1.7
2019-03-08T09:19:21.137Z,1.5
2019-03-08T09:22:21.189Z,1.6
2019-03-08T09:25:23.457Z,1.7
2019-03-08T09:28:21.363Z,2.1
2019-03-08T09:31:21.198Z,1.8
2019-03-08T09:34:21.229Z,2.5
2019-03-08T09:37:21.184Z,2
2019-03-08T09:40:21.271Z,3.3
2019-03-08T09:43:21.181Z,2.4
2019-03-08T09:46:21.156Z,1.8
2019-03-08T09:49:23.524Z,1.5
2019-03-08T09:52:21.256Z,1.5
2019-03-08T09:55:21.323Z,1.4
2019-03-08T09:58:21.246Z,2.4
2019-03-08T10:01:21.262Z,2
2019-03-08T10:04:21.286Z,2.3
2019-03-08T10:07:21.337Z,3.8
2019-03-08T10:10:21.550Z,2.8
2019-03-08T10:13:23.391Z,2
2019-03-08T10:16:21.214Z,1.6
2019-03-08T10:19:21.245Z,1.6
2019-03-08T10:22:21.334Z,1.5
2019-03-08T10:25:21.251Z,1.9
2019-03-08T10:28:21.236Z,1.5
2019-03-08T10:31:21.145Z,1.4
2019-03-08T10:34:21.184Z,1.4
2019-03-08T10:37:23.256Z,1.2
2019-03-08T10:40:21.203Z,1.9
2019-03-08T10:43:21.241Z,1.7
2019-03-08T10:46:21.197Z,1.4
2019-03-08T10:49:21.346Z,1.4
2019-03-08T10:52:21.349Z,1.4
2019-03-08T10:55:21.225Z,1.4
2019-03-08T10:58:21.215Z,1.4
2019-03-08T11:01:23.327Z,1.3
2019-03-08T11:04:21.209Z,1.2
2019-03-08T11:07:21.222Z,1.3
2019-03-08T11:10:21.239Z,1.5
2019-03-08T11:13:21.139Z,1.3
2019-03-08T11:16:21.166Z,1.3
2019-03-08T11:19:21.283Z,1.5
2019-03-08T11:22:21.360Z,1.3
2019-03-08T11:25:22.529Z,1.5
2019-03-08T11:28:21.791Z,1.7
2019-03-08T11:31:21.190Z,3.6
2019-03-08T11:34:21.310Z,3.8
2019-03-08T11:37:21.206Z,4
2019-03-08T11:40:21.174Z,5
2019-03-08T11:43:21.273Z,5.2
2019-03-08T11:46:21.197Z,5.4
2019-03-08T11:49:21.343Z,4
2019-03-08T11:52:21.149Z,3.5
2019-03-08T11:55:21.141Z,5.2
2019-03-08T11:58:21.634Z,4.7
2019-03-08T12:01:21.343Z,4.1
2019-03-08T12:04:21.353Z,3.8
2019-03-08T12:07:21.401Z,4.2
2019-03-08T12:10:21.207Z,3.9
2019-03-08T12:13:21.079Z,2.8
2019-03-08T12:16:21.797Z,3.9
2019-03-08T12:19:21.107Z,3.4
2019-03-08T12:22:24.014Z,3.3
2019-03-08T12:25:21.346Z,3.4
2019-03-08T12:28:21.352Z,2.4
2019-03-08T12:31:21.342Z,2.4
2019-03-08T12:34:21.353Z,1.9
2019-03-08T12:37:21.367Z,2
2019-03-08T12:40:21.317Z,2.9
2019-03-08T12:43:21.348Z,2.1
2019-03-08T12:46:23.677Z,1.9
2019-03-08T12:49:21.178Z,1.8
2019-03-08T12:52:21.228Z,2.5
2019-03-08T12:55:21.338Z,2.2
2019-03-08T12:58:21.061Z,2
2019-03-08T13:01:21.332Z,3.6
2019-03-08T13:04:21.054Z,2.9
2019-03-08T13:07:21.190Z,2.1
2019-03-08T13:10:21.138Z,1.8
2019-03-08T13:13:21.158Z,1.7
2019-03-08T13:16:21.143Z,2.2
2019-03-08T13:19:21.047Z,1.7
2019-03-08T13:22:21.314Z,1.5
2019-03-08T13:25:21.303Z,2.1
2019-03-08T13:28:21.423Z,2.1
2019-03-08T13:31:21.205Z,2.7
2019-03-08T13:34:21.488Z,2.2
2019-03-08T13:37:21.260Z,2.4
2019-03-08T13:40:21.288Z,2.6
2019-03-08T13:43:21.248Z,2
2019-03-08T13:46:21.177Z,2.2
2019-03-08T13:49:21.307Z,1.7
2019-03-08T13:52:21.173Z,1.5
2019-03-08T13:55:21.181Z,1.6
2019-03-08T13:58:21.475Z,2.2
2019-03-08T14:01:21.166Z,2
2019-03-08T14:04:21.135Z,1.9
2019-03-08T14:07:21.199Z,1.4
2019-03-08T14:10:21.181Z,4.1
2019-03-08T14:13:21.337Z,4.1
2019-03-08T14:16:21.403Z,5.4
2019-03-08T14:19:21.210Z,5.6
2019-03-08T14:22:21.217Z,4.5
2019-03-08T14:25:21.127Z,3.2
2019-03-08T14:28:21.245Z,2.9
2019-03-08T14:31:21.035Z,3.8
2019-03-08T14:34:21.239Z,3
2019-03-08T14:37:21.414Z,3.6
2019-03-08T14:40:22.437Z,3.7
2019-03-08T14:43:21.251Z,2.7
2019-03-08T14:46:22.529Z,2.3
2019-03-08T14:49:24.641Z,2.1
2019-03-08T14:52:22.994Z,2.7
2019-03-08T14:55:24.142Z,2.1
2019-03-08T14:58:21.150Z,3.4
2019-03-08T15:01:21.063Z,3.4
2019-03-08T15:04:21.136Z,3.4
2019-03-08T15:07:21.034Z,3.4
2019-03-08T15:10:21.092Z,3.2
2019-03-08T15:17:55.669Z,2
2019-03-08T15:21:00.268Z,2.5
2019-03-08T15:25:34.340Z,1.6
2019-03-08T15:28:34.211Z,2.1
2019-03-08T15:34:22.044Z,3.9
2019-03-08T15:37:16.085Z,3
2019-03-08T15:40:16.093Z,3.6
2019-03-08T15:43:15.989Z,3.4
2019-03-08T15:50:32.465Z,2.4
2019-03-08T15:53:32.547Z,2
2019-03-08T15:56:32.424Z,2
2019-03-08T15:59:32.482Z,2.2
2019-03-08T16:02:32.538Z,2.7
2019-03-08T16:05:32.340Z,2.3
2019-03-08T16:08:41.076Z,2.9
2019-03-08T16:11:32.475Z,2.9
2019-03-08T16:14:33.037Z,2.2
2019-03-08T16:21:57.142Z,3.7
2019-03-08T16:25:00.328Z,3.2
2019-03-08T16:27:57.065Z,3.1
2019-03-08T16:30:57.062Z,2.8
2019-03-08T16:33:57.069Z,4
2019-03-08T16:36:57.082Z,4.7
2019-03-08T16:39:57.062Z,3.4
2019-03-08T16:42:57.199Z,3.4
2019-03-08T16:45:57.171Z,4.4
2019-03-08T16:48:57.164Z,3.9
2019-03-08T16:51:57.054Z,4.5
2019-03-08T16:58:16.964Z,2
2019-03-08T17:01:16.937Z,2.2
2019-03-08T17:04:17.068Z,2.2
2019-03-08T17:07:16.980Z,2.2
2019-03-08T17:10:19.234Z,2.8
2019-03-08T17:13:16.998Z,3.4
2019-03-08T17:16:17.342Z,3.4
2019-03-08T17:19:19.912Z,2.9
2019-03-08T17:22:17.144Z,2.9
2019-03-08T17:25:17.026Z,2.3
2019-03-08T17:28:17.134Z,2.4
2019-03-08T17:31:17.231Z,2
2019-03-08T17:34:17.121Z,1.7
2019-03-08T17:37:17.235Z,1.8
2019-03-08T17:40:17.253Z,2.1
2019-03-08T17:43:17.163Z,3.2
2019-03-08T17:46:17.207Z,3
2019-03-08T17:49:17.069Z,2.8
2019-03-08T17:52:17.142Z,2.3
2019-03-08T17:55:17.071Z,2.2
2019-03-08T17:58:17.012Z,3.7
2019-03-08T18:01:17.123Z,2.9
2019-03-08T18:04:17.173Z,2.9
2019-03-08T18:07:17.515Z,2.6
2019-03-08T18:10:19.254Z,2.5
2019-03-08T18:13:17.157Z,2.6
2019-03-08T18:16:17.171Z,3.1
2019-03-08T18:19:17.182Z,3.1
2019-03-08T18:22:17.211Z,2.5
2019-03-08T18:25:17.243Z,2.5
2019-03-08T18:28:17.286Z,4
2019-03-08T18:31:16.870Z,2.9
2019-03-08T18:34:17.008Z,3.8
2019-03-08T18:37:16.927Z,2.9
2019-03-08T18:40:17.145Z,2.6
2019-03-08T18:43:17.105Z,1.9
2019-03-08T18:46:17.051Z,1.9
2019-03-08T18:49:17.126Z,2.1
2019-03-08T18:52:17.041Z,2
2019-03-08T18:55:17.153Z,2.2
2019-03-08T18:58:17.325Z,3.3
2019-03-08T19:01:17.062Z,3.1
2019-03-08T19:04:17.083Z,3
2019-03-08T19:07:17.078Z,2.7
2019-03-08T19:10:18.366Z,3
2019-03-08T19:13:17.160Z,2.9
2019-03-08T19:16:17.148Z,2.7
2019-03-08T19:19:19.239Z,2.4
2019-03-08T19:22:27.155Z,2.6
2019-03-08T19:25:16.932Z,2.1
2019-03-08T19:28:16.871Z,2.2
2019-03-08T19:31:17.055Z,2
2019-03-08T19:34:17.040Z,2.2
2019-03-08T19:37:17.157Z,2.7
2019-03-08T19:40:17.001Z,3.1
2019-03-08T19:43:17.083Z,2.9
2019-03-08T19:46:17.097Z,3.1
2019-03-08T19:49:17.100Z,3.7
2019-03-08T19:52:17.113Z,3
2019-03-08T19:55:17.108Z,2.7
2019-03-08T19:58:17.247Z,2.5
2019-03-08T20:01:16.977Z,2.4
2019-03-08T20:04:17.051Z,2.6
2019-03-08T20:07:17.055Z,3.2
2019-03-08T20:10:17.162Z,2.6
2019-03-08T20:13:17.058Z,2.6
2019-03-08T20:16:17.084Z,3
2019-03-08T20:19:19.467Z,3.1
2019-03-08T20:22:17.044Z,2.5
2019-03-08T20:25:16.972Z,2.3
2019-03-08T20:28:17.074Z,2.6
2019-03-08T20:31:17.153Z,2.3
2019-03-08T20:34:17.169Z,2.5
2019-03-08T20:37:17.088Z,2.4
2019-03-08T20:40:17.133Z,2.3
2019-03-08T20:43:16.938Z,2.6
2019-03-08T20:46:16.953Z,2.2
2019-03-08T20:49:16.933Z,2.7
2019-03-08T20:52:16.979Z,2.6
2019-03-08T20:55:16.996Z,2.1
2019-03-08T20:58:17.158Z,2.2
2019-03-08T21:01:17.146Z,1.9
2019-03-08T21:04:16.989Z,2
2019-03-08T21:07:17.069Z,2.3
2019-03-08T21:10:19.730Z,2.3
2019-03-08T21:13:17.063Z,2.1
2019-03-08T21:16:17.381Z,2.1
2019-03-08T21:19:17.170Z,2.2
2019-03-08T21:22:17.200Z,2.4
2019-03-08T21:25:17.298Z,2.3
2019-03-08T21:28:17.192Z,2.3
2019-03-08T21:31:17.093Z,2.1
2019-03-08T21:34:17.097Z,2
2019-03-08T21:37:17.641Z,2.1
2019-03-08T21:40:16.943Z,1.9
2019-03-08T21:43:17.036Z,1.8
2019-03-08T21:46:16.925Z,1.8
2019-03-08T21:49:16.972Z,1.8
2019-03-08T21:52:19.218Z,1.7
2019-03-08T21:55:16.951Z,2.1
2019-03-08T21:58:17.099Z,1.8
2019-03-08T22:01:17.179Z,1.8
2019-03-08T22:04:17.038Z,1.8
2019-03-08T22:07:17.116Z,2.1
2019-03-08T22:10:17.108Z,1.9
2019-03-08T22:13:17.111Z,2.2
2019-03-08T22:16:17.061Z,2
2019-03-08T22:19:17.175Z,1.9
2019-03-08T22:22:16.915Z,2.1
2019-03-08T22:25:16.983Z,2.1
2019-03-08T22:28:16.908Z,1.9
2019-03-08T22:31:16.884Z,1.9
2019-03-08T22:34:19.210Z,2.2
2019-03-08T22:37:16.985Z,2.2
2019-03-08T22:40:17.051Z,2.4
2019-03-08T22:43:17.108Z,2.3
2019-03-08T22:46:16.865Z,1.9
2019-03-08T22:49:16.992Z,1.7
2019-03-08T22:52:16.975Z,1.8
2019-03-08T22:55:16.972Z,1.6
2019-03-08T22:58:16.852Z,2.3
2019-03-08T23:01:16.952Z,2.3
2019-03-08T23:04:16.962Z,2.2
2019-03-08T23:07:18.449Z,1.9
2019-03-08T23:10:17.079Z,1.8
2019-03-08T23:13:17.004Z,1.7
2019-03-08T23:16:17.020Z,1.6
2019-03-08T23:19:17.125Z,2.1
2019-03-08T23:22:17.084Z,2.3
2019-03-08T23:25:20.692Z,2.1
2019-03-08T23:28:17.066Z,2
2019-03-08T23:31:17.122Z,1.7
2019-03-08T23:34:19.340Z,1.8
2019-03-08T23:37:17.068Z,1.8
2019-03-08T23:40:17.120Z,2
2019-03-08T23:43:17.143Z,1.8
2019-03-08T23:46:18.837Z,1.6
2019-03-08T23:49:16.916Z,1.6
2019-03-08T23:52:17.090Z,1.7
2019-03-08T23:55:17.121Z,1.7
2019-03-08T23:58:16.895Z,1.8
